createdAt,value
2022-08-03T00:02:10.117Z,101158.78
2022-08-03T00:04:55.087Z,101179.00
2022-08-03T00:07:41.145Z,101182.19
2022-08-03T00:10:26.963Z,101169.09
2022-08-03T00:13:13.490Z,101172.88
2022-08-03T00:15:59.228Z,101162.53
2022-08-03T00:18:44.616Z,101169.13
2022-08-03T00:21:29.819Z,101163.81
2022-08-03T00:24:15.159Z,101153.09
2022-08-03T00:27:00.566Z,101164.09
2022-08-03T00:30:00.113Z,101153.09
2022-08-03T00:32:45.624Z,101164.41
2022-08-03T00:35:49.245Z,101153.09
2022-08-03T00:38:35.839Z,101148.38
2022-08-03T00:41:21.148Z,101149.50
2022-08-03T00:44:06.238Z,101143.50
2022-08-03T00:46:51.347Z,101144.72
2022-08-03T00:49:38.155Z,101147.09
2022-08-03T00:52:23.430Z,101149.44
2022-08-03T00:55:09.988Z,101138.69
2022-08-03T00:57:56.095Z,101139.22
2022-08-03T01:00:41.666Z,101142.75
2022-08-03T01:03:26.904Z,101124.63
2022-08-03T01:06:25.459Z,101140.53
2022-08-03T01:09:38.216Z,101142.56
2022-08-03T01:12:37.457Z,101126.03
2022-08-03T01:15:28.972Z,101138.56
2022-08-03T01:18:26.182Z,101141.88
2022-08-03T01:21:18.071Z,101134.38
2022-08-03T01:24:27.779Z,101118.63
2022-08-03T01:27:17.866Z,101140.66
2022-08-03T01:30:08.466Z,101140.53
2022-08-03T01:33:01.899Z,101137.13
2022-08-03T01:35:54.336Z,101135.44
2022-08-03T01:38:48.268Z,101139.38
2022-08-03T01:41:35.226Z,101140.22
2022-08-03T01:44:29.713Z,101118.75
2022-08-03T01:47:19.881Z,101135.22
2022-08-03T01:50:07.230Z,101130.13
2022-08-03T01:52:53.832Z,101125.97
2022-08-03T01:55:39.569Z,101129.00
2022-08-03T01:58:27.016Z,101125.69
2022-08-03T02:01:13.789Z,101138.78
2022-08-03T02:04:01.196Z,101129.47
2022-08-03T02:07:02.103Z,101125.81
2022-08-03T02:09:52.512Z,101124.59
2022-08-03T02:12:38.458Z,101135.41
2022-08-03T02:15:24.433Z,101132.75
2022-08-03T02:18:11.057Z,101135.72
2022-08-03T02:20:57.067Z,101132.38
2022-08-03T02:23:42.297Z,101128.44
2022-08-03T02:26:30.560Z,101118.78
2022-08-03T02:29:21.371Z,101108.38
2022-08-03T02:32:31.262Z,101121.16
2022-08-03T02:35:19.679Z,101113.50
2022-08-03T02:38:08.266Z,101117.66
2022-08-03T02:40:57.244Z,101113.19
2022-08-03T02:44:06.271Z,101084.63
2022-08-03T02:46:55.610Z,101107.22
2022-08-03T02:49:51.562Z,101110.44
2022-08-03T02:52:38.421Z,101108.47
2022-08-03T02:55:26.420Z,101113.88
2022-08-03T02:58:13.458Z,101116.84
2022-08-03T03:00:59.952Z,101115.19
2022-08-03T03:03:45.393Z,101119.50
2022-08-03T03:06:34.070Z,101102.34
2022-08-03T03:09:21.218Z,101109.47
2022-08-03T03:12:08.314Z,101113.88
2022-08-03T03:14:53.746Z,101102.03
2022-08-03T03:17:39.578Z,101112.22
2022-08-03T03:20:29.758Z,101108.56
2022-08-03T03:23:16.209Z,101094.81
2022-08-03T03:26:02.282Z,101110.53
2022-08-03T03:28:48.065Z,101109.41
2022-08-03T03:31:33.131Z,101096.81
2022-08-03T03:34:18.767Z,101095.75
2022-08-03T03:37:05.163Z,101103.97
2022-08-03T03:39:50.072Z,101091.44
2022-08-03T03:42:35.571Z,101107.16
2022-08-03T03:45:22.556Z,101108.97
2022-08-03T03:48:07.893Z,101112.63
2022-08-03T03:50:53.803Z,101102.13
2022-08-03T03:53:38.658Z,101105.78
2022-08-03T03:56:24.497Z,101091.13
2022-08-03T03:59:10.142Z,101106.00
2022-08-03T04:01:59.033Z,101103.25
2022-08-03T04:05:02.851Z,101101.41
2022-08-03T04:08:27.890Z,101093.66
2022-08-03T04:11:34.918Z,101113.28
2022-08-03T04:14:26.807Z,101107.31
2022-08-03T04:17:13.549Z,101104.66
2022-08-03T04:20:01.357Z,101104.56
2022-08-03T04:22:51.344Z,101098.41
2022-08-03T04:25:40.109Z,101104.84
2022-08-03T04:28:30.836Z,101096.78
2022-08-03T04:31:20.476Z,101094.13
2022-08-03T04:34:05.986Z,101105.53
2022-08-03T04:36:57.944Z,101106.81
2022-08-03T04:39:44.790Z,101111.53
2022-08-03T04:42:33.255Z,101102.75
2022-08-03T04:45:19.585Z,101094.69
2022-08-03T04:48:05.253Z,101111.94
2022-08-03T04:50:50.788Z,101104.97
2022-08-03T04:53:35.852Z,101114.06
2022-08-03T04:56:21.066Z,101111.53
2022-08-03T04:59:06.350Z,101127.84
2022-08-03T05:01:51.575Z,101130.81
2022-08-03T05:04:38.066Z,101135.81
2022-08-03T05:07:25.101Z,101134.81
2022-08-03T05:10:14.929Z,101141.81
2022-08-03T05:13:01.511Z,101142.47
2022-08-03T05:15:46.876Z,101136.94
2022-08-03T05:18:32.290Z,101148.09
2022-08-03T05:21:17.449Z,101142.13
2022-08-03T05:24:02.894Z,101144.59
2022-08-03T05:26:48.182Z,101152.97
2022-08-03T05:29:33.589Z,101161.63
2022-08-03T05:32:19.462Z,101153.78
2022-08-03T05:36:02.484Z,101149.38
2022-08-03T05:38:10.369Z,101154.63
2022-08-03T05:41:20.052Z,101156.00
2022-08-03T05:44:02.766Z,101154.09
2022-08-03T05:46:47.727Z,101152.25
2022-08-03T05:49:33.269Z,101150.59
2022-08-03T05:52:18.385Z,101152.81
2022-08-03T05:55:07.730Z,101155.47
2022-08-03T05:57:52.797Z,101159.34
2022-08-03T06:00:42.099Z,101149.47
2022-08-03T06:03:27.467Z,101150.00
2022-08-03T06:06:13.640Z,101168.25
2022-08-03T06:08:58.643Z,101149.56
2022-08-03T06:11:43.921Z,101164.28
2022-08-03T06:14:31.076Z,101178.00
2022-08-03T06:17:16.826Z,101168.91
2022-08-03T06:20:02.053Z,101162.63
2022-08-03T06:22:50.723Z,101174.75
2022-08-03T06:25:36.493Z,101184.69
2022-08-03T06:28:52.850Z,101176.28
2022-08-03T06:31:32.680Z,101185.47
2022-08-03T06:34:30.572Z,101178.47
2022-08-03T06:37:19.448Z,101186.00
2022-08-03T06:40:05.150Z,101179.84
2022-08-03T06:42:50.413Z,101176.75
2022-08-03T06:45:35.734Z,101183.81
2022-08-03T06:48:20.977Z,101173.03
2022-08-03T06:51:06.280Z,101171.44
2022-08-03T06:53:52.074Z,101167.88
2022-08-03T06:56:37.478Z,101170.53
2022-08-03T07:00:08.077Z,101172.88
2022-08-03T07:02:29.651Z,101156.56
2022-08-03T07:05:15.287Z,101162.91
2022-08-03T07:08:01.985Z,101175.63
2022-08-03T07:10:47.060Z,101177.13
2022-08-03T07:13:32.238Z,101176.28
2022-08-03T07:16:17.655Z,101171.13
2022-08-03T07:19:02.839Z,101172.09
2022-08-03T07:21:48.129Z,101181.91
2022-08-03T07:24:33.241Z,101188.03
2022-08-03T07:27:18.472Z,101185.16
2022-08-03T07:30:06.697Z,101186.09
2022-08-03T07:32:51.675Z,101186.91
2022-08-03T07:35:36.853Z,101197.22
2022-08-03T07:38:22.060Z,101183.53
2022-08-03T07:41:07.349Z,101192.41
2022-08-03T07:43:52.719Z,101187.72
2022-08-03T07:46:38.028Z,101180.06
2022-08-03T07:49:23.624Z,101195.44
2022-08-03T07:52:28.550Z,101196.31
2022-08-03T07:55:14.204Z,101189.38
2022-08-03T07:58:09.785Z,101189.22
2022-08-03T08:00:54.884Z,101200.22
2022-08-03T08:03:52.898Z,101188.19
2022-08-03T08:06:39.047Z,101182.50
2022-08-03T08:09:25.611Z,101186.50
2022-08-03T08:12:15.488Z,101189.34
2022-08-03T08:15:01.235Z,101192.63
2022-08-03T08:17:49.249Z,101191.19
2022-08-03T08:20:38.907Z,101202.19
2022-08-03T08:23:42.200Z,101203.84
2022-08-03T08:26:29.460Z,101205.34
2022-08-03T08:29:14.852Z,101181.69
2022-08-03T08:32:00.029Z,101199.19
2022-08-03T08:34:45.402Z,101193.16
2022-08-03T08:37:30.626Z,101203.50
2022-08-03T08:40:15.908Z,101205.50
2022-08-03T08:43:02.408Z,101202.09
2022-08-03T08:45:50.907Z,101202.63
2022-08-03T08:48:40.302Z,101198.97
2022-08-03T08:51:59.034Z,101201.28
2022-08-03T08:54:36.969Z,101200.31
2022-08-03T08:57:41.820Z,101196.63
2022-08-03T09:00:28.392Z,101188.81
2022-08-03T09:03:14.682Z,101177.63
2022-08-03T09:06:15.222Z,101188.81
2022-08-03T09:09:00.531Z,101188.13
2022-08-03T09:12:00.979Z,101191.78
2022-08-03T09:15:14.599Z,101178.94
2022-08-03T09:17:57.694Z,101175.91
2022-08-03T09:20:42.721Z,101159.84
2022-08-03T09:24:01.083Z,101179.16
2022-08-03T09:26:50.972Z,101171.81
2022-08-03T09:29:39.066Z,101165.75
2022-08-03T09:32:25.079Z,101175.97
2022-08-03T09:35:11.424Z,101156.44
2022-08-03T09:38:14.672Z,101189.94
2022-08-03T09:41:00.817Z,101181.41
2022-08-03T09:43:47.145Z,101187.25
2022-08-03T09:46:33.349Z,101188.59
2022-08-03T09:49:18.598Z,101188.53
2022-08-03T09:52:37.788Z,101175.59
2022-08-03T09:56:34.515Z,101170.03
2022-08-03T09:58:31.747Z,101185.81
2022-08-03T10:01:25.356Z,101178.91
2022-08-03T10:04:16.788Z,101175.16
2022-08-03T10:07:10.088Z,101180.16
2022-08-03T10:09:56.622Z,101183.50
2022-08-03T10:12:42.913Z,101175.34
2022-08-03T10:16:21.711Z,101184.25
2022-08-03T10:18:34.163Z,101177.81
2022-08-03T10:21:22.089Z,101181.44
2022-08-03T10:24:10.641Z,101167.78
2022-08-03T10:27:07.965Z,101172.66
2022-08-03T10:29:55.514Z,101175.38
2022-08-03T10:32:52.337Z,101167.59
2022-08-03T10:35:40.024Z,101169.53
2022-08-03T10:38:38.605Z,101162.34
2022-08-03T10:41:31.388Z,101163.53
2022-08-03T10:44:23.204Z,101154.38
2022-08-03T10:47:10.234Z,101158.28
2022-08-03T10:49:56.012Z,101153.00
2022-08-03T10:53:03.782Z,101148.72
2022-08-03T10:56:07.600Z,101138.97
2022-08-03T10:58:57.755Z,101130.59
2022-08-03T11:01:58.651Z,101136.59
2022-08-03T11:04:45.818Z,101134.66
2022-08-03T11:07:31.077Z,101126.28
2022-08-03T11:10:32.158Z,101139.13
2022-08-03T11:13:20.900Z,101136.00
2022-08-03T11:16:21.799Z,101128.63
2022-08-03T11:19:12.631Z,101139.53
2022-08-03T11:21:59.070Z,101144.94
2022-08-03T11:24:46.258Z,101146.66
2022-08-03T11:27:33.177Z,101147.13
2022-08-03T11:30:18.056Z,101145.84
2022-08-03T11:33:03.243Z,101141.25
2022-08-03T11:35:59.921Z,101141.59
2022-08-03T11:39:16.750Z,101136.09
2022-08-03T11:42:22.086Z,101131.16
2022-08-03T11:45:08.809Z,101136.59
2022-08-03T11:47:55.392Z,101133.38
2022-08-03T11:50:40.656Z,101133.63
2022-08-03T11:53:25.721Z,101130.53
2022-08-03T11:56:12.873Z,101124.31
2022-08-03T11:59:19.893Z,101126.41
2022-08-03T12:02:12.419Z,101118.75
2022-08-03T12:05:02.502Z,101116.50
2022-08-03T12:08:03.212Z,101132.63
2022-08-03T12:10:51.029Z,101123.16
2022-08-03T12:14:44.815Z,101133.50
2022-08-03T12:16:56.420Z,101113.00
2022-08-03T12:19:42.956Z,101122.69
2022-08-03T12:22:39.052Z,101120.63
2022-08-03T12:25:39.056Z,101127.28
2022-08-03T12:28:36.265Z,101105.91
2022-08-03T12:31:22.995Z,101119.75
2022-08-03T12:34:15.520Z,101127.91
2022-08-03T12:37:05.198Z,101122.22
2022-08-03T12:40:10.503Z,101127.06
2022-08-03T12:42:55.961Z,101128.63
2022-08-03T12:45:41.437Z,101132.28
2022-08-03T12:48:27.865Z,101115.34
2022-08-03T12:51:13.192Z,101114.00
2022-08-03T12:53:59.022Z,101118.28
2022-08-03T12:57:06.894Z,101113.34
2022-08-03T12:59:55.826Z,101115.22
2022-08-03T13:02:41.092Z,101112.28
2022-08-03T13:05:32.532Z,101116.16
2022-08-03T13:08:22.307Z,101115.81
2022-08-03T13:11:52.584Z,101108.28
2022-08-03T13:14:32.489Z,101095.78
2022-08-03T13:17:18.672Z,101095.75
2022-08-03T13:20:04.810Z,101102.00
2022-08-03T13:22:50.616Z,101098.50
2022-08-03T13:25:35.905Z,101100.88
2022-08-03T13:28:21.226Z,101105.84
2022-08-03T13:31:07.070Z,101103.38
2022-08-03T13:33:52.222Z,101104.41
2022-08-03T13:37:06.409Z,101100.06
2022-08-03T13:39:58.434Z,101086.88
2022-08-03T13:42:45.702Z,101100.44
2022-08-03T13:45:31.047Z,101086.31
2022-08-03T13:48:16.538Z,101094.72
2022-08-03T13:51:22.722Z,101106.91
2022-08-03T13:54:08.931Z,101091.50
2022-08-03T13:56:56.717Z,101097.81
2022-08-03T13:59:45.692Z,101099.47
2022-08-03T14:02:31.063Z,101093.84
2022-08-03T14:05:16.285Z,101097.16
2022-08-03T14:08:04.760Z,101087.63
2022-08-03T14:10:50.371Z,101090.31
2022-08-03T14:13:35.540Z,101079.22
2022-08-03T14:16:20.901Z,101082.59
2022-08-03T14:19:07.025Z,101084.25
2022-08-03T14:22:06.087Z,101083.06
2022-08-03T14:24:52.019Z,101090.34
2022-08-03T14:27:38.337Z,101077.66
2022-08-03T14:30:23.787Z,101079.69
2022-08-03T14:33:08.972Z,101073.56
2022-08-03T14:35:54.891Z,101076.50
2022-08-03T14:38:40.197Z,101070.50
2022-08-03T14:41:25.573Z,101061.06
2022-08-03T14:44:10.913Z,101061.13
2022-08-03T14:46:56.108Z,101061.16
2022-08-03T14:50:38.459Z,101066.72
2022-08-03T14:52:47.150Z,101054.25
2022-08-03T14:55:38.401Z,101049.66
2022-08-03T14:58:25.946Z,101050.34
2022-08-03T15:02:04.972Z,101063.56
2022-08-03T15:04:16.069Z,101050.13
2022-08-03T15:07:01.186Z,101021.59
2022-08-03T15:09:46.593Z,101026.69
2022-08-03T15:12:32.441Z,101026.81
2022-08-03T15:15:17.701Z,101033.19
2022-08-03T15:18:03.367Z,101030.56
2022-08-03T15:20:50.359Z,101025.50
2022-08-03T15:23:35.328Z,101011.19
2022-08-03T15:26:31.704Z,101029.97
2022-08-03T15:30:05.527Z,101026.84
2022-08-03T15:32:24.850Z,101018.47
2022-08-03T15:35:11.880Z,101010.31
2022-08-03T15:37:57.019Z,101006.44
2022-08-03T15:40:42.308Z,101015.44
2022-08-03T15:43:27.532Z,101010.53
2022-08-03T15:46:28.713Z,101007.81
2022-08-03T15:49:15.038Z,101021.56
2022-08-03T15:52:02.535Z,101019.31
2022-08-03T15:54:47.934Z,101019.13
2022-08-03T15:57:33.091Z,101017.16
2022-08-03T16:00:18.564Z,101011.75
2022-08-03T16:03:04.111Z,101002.66
2022-08-03T16:05:49.433Z,100998.22
2022-08-03T16:08:34.845Z,101006.13
2022-08-03T16:11:20.019Z,100994.34
2022-08-03T16:14:32.061Z,101008.63
2022-08-03T16:17:10.393Z,101007.19
2022-08-03T16:19:55.854Z,101004.88
2022-08-03T16:22:47.681Z,100992.47
2022-08-03T16:25:33.229Z,100989.28
2022-08-03T16:28:19.034Z,101003.91
2022-08-03T16:31:05.296Z,100993.81
2022-08-03T16:33:50.350Z,100978.09
2022-08-03T16:36:35.660Z,100999.00
2022-08-03T16:39:20.803Z,101011.03
2022-08-03T16:42:06.286Z,101006.31
2022-08-03T16:44:51.566Z,100978.59
2022-08-03T16:47:37.204Z,101000.28
2022-08-03T16:50:22.101Z,101001.75
2022-08-03T16:53:09.597Z,100963.75
2022-08-03T16:55:55.151Z,100988.09
2022-08-03T16:58:42.201Z,100991.00
2022-08-03T17:01:35.695Z,100988.31
2022-08-03T17:04:23.149Z,100970.34
2022-08-03T17:07:08.886Z,100988.97
2022-08-03T17:09:56.185Z,100997.69
2022-08-03T17:12:41.831Z,100993.78
2022-08-03T17:15:37.949Z,100989.66
2022-08-03T17:18:37.602Z,100984.06
2022-08-03T17:21:29.729Z,100983.63
2022-08-03T17:24:32.805Z,100981.38
2022-08-03T17:28:50.493Z,100985.94
2022-08-03T17:30:50.139Z,100985.31
2022-08-03T17:33:37.668Z,100974.75
2022-08-03T17:36:36.977Z,100977.66
2022-08-03T17:39:55.586Z,100982.22
2022-08-03T17:42:36.250Z,100988.81
2022-08-03T17:45:21.487Z,100981.16
2022-08-03T17:48:06.837Z,100972.44
2022-08-03T17:51:03.139Z,100960.63
2022-08-03T17:53:57.881Z,100982.34
2022-08-03T17:57:22.079Z,100966.47
2022-08-03T18:00:32.766Z,100965.41
2022-08-03T18:06:56.096Z,100982.38
2022-08-03T18:12:54.432Z,100967.69
2022-08-03T18:15:46.137Z,100982.38
2022-08-03T18:18:36.014Z,100981.56
2022-08-03T18:21:25.446Z,100971.81
2022-08-03T18:24:11.609Z,100978.25
2022-08-03T18:26:57.260Z,100975.31
2022-08-03T18:29:45.645Z,100978.63
2022-08-03T18:32:33.788Z,100969.53
2022-08-03T18:35:19.989Z,100986.25
2022-08-03T18:38:11.692Z,100987.28
2022-08-03T18:41:02.102Z,100984.19
2022-08-03T18:44:07.845Z,100993.47
2022-08-03T18:47:51.640Z,100986.44
2022-08-03T18:54:02.631Z,100961.59
2022-08-03T18:56:54.007Z,100990.72
2022-08-03T18:59:48.522Z,100989.75
2022-08-03T19:02:58.615Z,100993.00
2022-08-03T19:09:03.942Z,100990.00
2022-08-03T19:12:14.560Z,100974.66
2022-08-03T19:15:10.383Z,100991.16
2022-08-03T19:17:58.724Z,101003.84
2022-08-03T19:20:46.793Z,100996.81
2022-08-03T19:23:34.016Z,101000.13
2022-08-03T19:26:30.831Z,100996.78
2022-08-03T19:29:18.659Z,101004.25
2022-08-03T19:32:08.782Z,100991.56
2022-08-03T19:34:54.975Z,101005.81
2022-08-03T19:37:43.496Z,101006.88
2022-08-03T19:40:32.945Z,101006.28
2022-08-03T19:43:22.310Z,101014.91
2022-08-03T19:46:12.961Z,101011.34
2022-08-03T19:49:15.204Z,101014.69
2022-08-03T19:52:03.364Z,101019.78
2022-08-03T19:54:53.861Z,101018.25
2022-08-03T19:57:44.046Z,101020.19
2022-08-03T20:00:36.896Z,101008.56
2022-08-03T20:03:27.565Z,101008.19
2022-08-03T20:06:28.567Z,101001.25
2022-08-03T20:09:15.246Z,101003.28
2022-08-03T20:12:01.604Z,101024.09
2022-08-03T20:14:48.240Z,101026.38
2022-08-03T20:17:54.728Z,101017.59
2022-08-03T20:20:41.567Z,101029.78
2022-08-03T20:23:37.461Z,101039.91
2022-08-03T20:26:23.972Z,101030.66
2022-08-03T20:29:10.489Z,101025.50
2022-08-03T20:31:55.826Z,101031.03
2022-08-03T20:34:42.118Z,101036.75
2022-08-03T20:37:27.349Z,101023.31
2022-08-03T20:40:15.888Z,101034.22
2022-08-03T20:43:01.731Z,101039.59
2022-08-03T20:45:59.187Z,101035.44
2022-08-03T20:48:53.794Z,101039.66
2022-08-03T20:51:49.543Z,101049.56
2022-08-03T20:54:37.902Z,101044.84
2022-08-03T20:57:24.913Z,101041.72
2022-08-03T21:00:16.294Z,101047.63
2022-08-03T21:03:01.734Z,101042.78
2022-08-03T21:05:51.648Z,101053.34
2022-08-03T21:08:46.835Z,101041.72
2022-08-03T21:11:41.452Z,101048.69
2022-08-03T21:12:57.104Z,100982.38
2022-08-03T21:13:00.574Z,100984.56
2022-08-03T21:13:01.260Z,100992.91
2022-08-03T21:13:06.034Z,100982.56
2022-08-03T21:14:59.815Z,101044.06
2022-08-03T21:17:52.606Z,101047.38
2022-08-03T21:20:38.867Z,101049.78
2022-08-03T21:23:34.981Z,101058.81
2022-08-03T21:26:32.373Z,101059.81
2022-08-03T21:29:18.260Z,101053.16
2022-08-03T21:32:04.533Z,101056.88
2022-08-03T21:34:52.744Z,101070.03
2022-08-03T21:37:42.094Z,101060.88
2022-08-03T21:40:27.091Z,101063.91
2022-08-03T21:43:12.311Z,101067.09
2022-08-03T21:46:03.583Z,101051.81
2022-08-03T21:48:55.325Z,101067.28
2022-08-03T21:51:40.583Z,101064.31
2022-08-03T21:54:34.742Z,101068.97
2022-08-03T21:57:24.042Z,101054.63
2022-08-03T22:00:14.534Z,101063.78
2022-08-03T22:03:15.205Z,101061.66
2022-08-03T22:06:05.717Z,101038.50
2022-08-03T22:08:52.805Z,101063.81
2022-08-03T22:11:38.894Z,101050.97
2022-08-03T22:14:24.111Z,101056.16
2022-08-03T22:17:09.555Z,101061.97
2022-08-03T22:19:56.371Z,101047.47
2022-08-03T22:22:44.904Z,101035.00
2022-08-03T22:25:41.898Z,101039.50
2022-08-03T22:28:30.424Z,101057.31
2022-08-03T22:31:30.501Z,101061.63
2022-08-03T22:34:26.318Z,101063.31
2022-08-03T22:37:12.203Z,101072.81
2022-08-03T22:39:57.802Z,101068.66
2022-08-03T22:42:45.919Z,101062.44
2022-08-03T22:46:07.427Z,101070.78
2022-08-03T22:48:41.226Z,101068.28
2022-08-03T22:51:27.134Z,101055.94
2022-08-03T22:54:12.133Z,101050.91
2022-08-03T22:56:58.194Z,101065.03
2022-08-03T22:59:44.880Z,101071.03
2022-08-03T23:02:30.221Z,101059.16
2022-08-03T23:06:01.981Z,101076.31
2022-08-03T23:08:33.896Z,101069.31
2022-08-03T23:11:23.334Z,101067.50
2022-08-03T23:14:13.604Z,101072.97
2022-08-03T23:17:04.235Z,101076.94
2022-08-03T23:19:53.874Z,101083.13
2022-08-03T23:22:42.883Z,101074.75
2022-08-03T23:25:28.650Z,101086.06
2022-08-03T23:28:18.011Z,101089.03
2022-08-03T23:31:04.384Z,101091.06
2022-08-03T23:34:16.749Z,101083.38
2022-08-03T23:37:04.789Z,101083.06
2022-08-03T23:39:49.931Z,101088.69
2022-08-03T23:42:35.206Z,101080.69
2022-08-03T23:45:20.965Z,101072.72
2022-08-03T23:48:06.421Z,101082.72
2022-08-03T23:50:58.938Z,101075.19
2022-08-03T23:53:51.439Z,101077.03
2022-08-03T23:57:05.253Z,101069.66
